createdAt,value
2024-02-12T00:03:22.085Z,87.56
2024-02-12T00:08:44.632Z,88.35
2024-02-12T00:14:06.634Z,89.27
2024-02-12T00:19:30.150Z,89.40
2024-02-12T00:24:53.046Z,89.53
2024-02-12T00:30:16.278Z,91.63
2024-02-12T00:35:42.522Z,91.49
2024-02-12T00:41:05.509Z,90.72
2024-02-12T00:46:27.353Z,91.14
2024-02-12T00:51:49.446Z,91.77
2024-02-12T00:57:11.339Z,92.79
2024-02-12T01:02:34.482Z,92.77
2024-02-12T01:07:56.893Z,92.80
2024-02-12T01:13:18.788Z,93.81
2024-02-12T01:18:43.585Z,95.90
2024-02-12T01:24:05.993Z,95.53
2024-02-12T01:29:30.868Z,94.85
2024-02-12T01:34:52.795Z,95.66
2024-02-12T01:40:15.135Z,96.92
2024-02-12T01:45:37.060Z,96.69
2024-02-12T01:51:07.380Z,97.79
2024-02-12T01:56:31.186Z,100.00
2024-02-12T02:01:53.577Z,100.00
2024-02-12T02:07:22.729Z,100.00
2024-02-12T02:12:47.366Z,96.73
2024-02-12T02:18:09.750Z,94.88
2024-02-12T02:23:31.736Z,95.33
2024-02-12T02:28:53.627Z,94.36
2024-02-12T02:34:15.645Z,94.53
2024-02-12T02:39:37.726Z,90.73
2024-02-12T02:44:59.895Z,92.55
2024-02-12T02:50:22.051Z,93.56
2024-02-12T02:55:44.294Z,94.40
2024-02-12T03:01:06.682Z,94.20
2024-02-12T03:06:28.636Z,96.18
2024-02-12T03:11:52.520Z,95.75
2024-02-12T03:17:14.520Z,94.60
2024-02-12T03:22:38.519Z,95.48
2024-02-12T03:28:00.299Z,94.04
2024-02-12T03:33:22.211Z,93.72
2024-02-12T03:38:45.817Z,93.12
2024-02-12T03:44:10.763Z,94.15
2024-02-12T03:49:51.470Z,93.49
2024-02-12T03:55:34.703Z,93.13
2024-02-12T04:00:56.866Z,93.12
2024-02-12T04:06:18.867Z,91.60
2024-02-12T04:11:41.678Z,93.09
2024-02-12T04:17:04.732Z,94.25
2024-02-12T04:22:27.801Z,94.07
2024-02-12T04:27:51.877Z,93.65
2024-02-12T04:33:13.809Z,92.20
2024-02-12T04:38:36.521Z,93.74
2024-02-12T04:43:59.179Z,94.72
2024-02-12T04:49:21.186Z,93.96
2024-02-12T04:54:44.800Z,92.95
2024-02-12T05:00:11.516Z,92.61
2024-02-12T05:05:33.440Z,91.23
2024-02-12T05:10:57.846Z,92.48
2024-02-12T05:16:21.043Z,94.22
2024-02-12T05:22:01.687Z,95.13
2024-02-12T05:27:23.982Z,95.36
2024-02-12T05:32:45.966Z,94.35
2024-02-12T05:38:07.894Z,93.89
2024-02-12T05:43:29.710Z,93.59
2024-02-12T05:48:51.566Z,93.25
2024-02-12T05:54:13.466Z,92.48
2024-02-12T05:59:35.760Z,91.61
2024-02-12T06:04:58.215Z,90.67
2024-02-12T06:10:20.298Z,91.65
2024-02-12T06:15:43.634Z,90.97
2024-02-12T06:21:06.296Z,91.17
2024-02-12T06:26:29.091Z,91.51
2024-02-12T06:31:50.986Z,91.42
2024-02-12T06:37:12.915Z,92.50
2024-02-12T06:42:34.707Z,91.99
2024-02-12T06:47:56.911Z,92.63
2024-02-12T06:53:19.177Z,92.89
2024-02-12T06:58:44.307Z,92.97
2024-02-12T07:04:06.154Z,95.53
2024-02-12T07:09:27.942Z,95.92
2024-02-12T07:14:49.997Z,94.50
2024-02-12T07:20:13.255Z,93.57
2024-02-12T07:25:36.285Z,92.28
2024-02-12T07:30:58.550Z,91.99
2024-02-12T07:36:20.360Z,90.27
2024-02-12T07:41:42.885Z,89.08
2024-02-12T07:47:06.716Z,86.65
2024-02-12T07:52:29.305Z,85.92
2024-02-12T07:57:51.277Z,84.98
2024-02-12T08:03:13.225Z,86.52
2024-02-12T08:08:35.210Z,83.72
2024-02-12T08:13:57.863Z,83.15
2024-02-12T08:19:20.040Z,83.84
2024-02-12T08:24:42.140Z,85.26
2024-02-12T08:30:07.890Z,83.68
2024-02-12T08:35:29.768Z,80.19
2024-02-12T08:40:51.810Z,80.61
2024-02-12T08:46:13.611Z,80.28
2024-02-12T08:51:35.408Z,79.94
2024-02-12T08:56:57.427Z,76.75
2024-02-12T09:02:20.082Z,78.34
2024-02-12T09:07:41.989Z,76.25
2024-02-12T09:13:06.405Z,76.52
2024-02-12T09:18:28.973Z,76.25
2024-02-12T09:23:50.967Z,76.46
2024-02-12T09:29:12.990Z,76.65
2024-02-12T09:34:34.969Z,74.67
2024-02-12T09:39:58.751Z,72.33
2024-02-12T09:45:23.940Z,72.03
2024-02-12T09:50:51.898Z,71.18
2024-02-12T09:56:15.653Z,71.56
2024-02-12T10:01:39.331Z,71.65
2024-02-12T10:07:03.876Z,71.12
2024-02-12T10:12:25.706Z,67.61
2024-02-12T10:17:51.149Z,69.24
2024-02-12T10:23:14.411Z,69.30
2024-02-12T10:28:36.304Z,68.76
2024-02-12T10:34:03.771Z,69.26
2024-02-12T10:39:26.861Z,65.31
2024-02-12T10:44:51.552Z,65.15
2024-02-12T10:50:14.847Z,64.19
2024-02-12T10:55:39.842Z,64.07
2024-02-12T11:01:04.206Z,65.65
2024-02-12T11:06:28.416Z,66.08
2024-02-12T11:11:50.270Z,65.22
2024-02-12T11:17:21.493Z,64.58
2024-02-12T11:22:46.315Z,64.76
2024-02-12T11:28:15.752Z,65.74
2024-02-12T11:33:41.165Z,64.44
2024-02-12T11:39:04.425Z,64.21
2024-02-12T11:44:26.491Z,64.93
2024-02-12T11:49:48.388Z,65.92
2024-02-12T11:55:11.465Z,65.78
2024-02-12T12:00:34.904Z,67.36
2024-02-12T12:05:57.624Z,67.79
2024-02-12T12:11:22.909Z,67.89
2024-02-12T12:17:27.281Z,69.15
2024-02-12T12:22:27.302Z,68.10
2024-02-12T12:27:53.240Z,66.51
2024-02-12T12:33:15.196Z,65.59
2024-02-12T12:38:37.606Z,67.04
2024-02-12T12:43:59.641Z,68.68
2024-02-12T12:49:23.958Z,71.35
2024-02-12T12:54:46.271Z,72.42
2024-02-12T13:00:20.519Z,74.25
2024-02-12T13:05:42.997Z,74.48
2024-02-12T13:11:05.169Z,76.92
2024-02-12T13:16:27.133Z,74.92
2024-02-12T13:21:48.967Z,73.06
2024-02-12T13:27:12.433Z,70.78
2024-02-12T13:32:34.599Z,70.79
2024-02-12T13:37:56.722Z,62.94
2024-02-12T13:43:22.338Z,58.92
2024-02-12T13:48:47.228Z,56.89
2024-02-12T13:54:09.682Z,56.92
2024-02-12T13:59:31.479Z,57.01
2024-02-12T14:04:55.190Z,57.25
2024-02-12T14:10:19.027Z,57.81
2024-02-12T14:16:04.448Z,56.98
2024-02-12T14:21:25.089Z,57.19
2024-02-12T14:26:59.077Z,57.50
2024-02-12T14:32:39.744Z,60.79
2024-02-12T14:38:06.085Z,62.23
2024-02-12T14:43:28.238Z,62.33
2024-02-12T14:48:50.387Z,63.82
2024-02-12T14:54:14.665Z,64.73
2024-02-12T14:59:38.003Z,65.20
2024-02-12T15:04:59.958Z,66.70
2024-02-12T15:10:25.711Z,64.01
2024-02-12T15:15:47.749Z,61.63
2024-02-12T15:21:09.735Z,60.39
2024-02-12T15:26:31.878Z,59.38
2024-02-12T15:31:54.754Z,59.28
2024-02-12T15:37:20.006Z,60.31
2024-02-12T15:42:41.916Z,61.32
2024-02-12T15:48:05.207Z,61.31
2024-02-12T15:53:27.174Z,62.26
2024-02-12T15:58:51.215Z,61.83
2024-02-12T16:04:14.497Z,61.75
2024-02-12T16:09:38.257Z,62.29
2024-02-12T16:15:00.168Z,63.86
2024-02-12T16:20:22.161Z,63.32
2024-02-12T16:25:47.920Z,64.21
2024-02-12T16:31:12.333Z,64.15
2024-02-12T16:36:34.825Z,64.27
2024-02-12T16:41:56.843Z,65.00
2024-02-12T16:47:18.977Z,64.96
2024-02-12T16:52:42.399Z,66.16
2024-02-12T16:58:04.785Z,66.17
2024-02-12T17:03:27.329Z,65.63
2024-02-12T17:08:50.448Z,66.74
2024-02-12T17:14:12.406Z,66.98
2024-02-12T17:19:34.404Z,66.49
2024-02-12T17:24:56.435Z,66.63
2024-02-12T17:30:18.804Z,67.63
2024-02-12T17:35:40.666Z,67.82
2024-02-12T17:41:03.442Z,67.55
2024-02-12T17:46:26.069Z,68.31
2024-02-12T17:51:48.075Z,69.01
2024-02-12T17:57:11.403Z,68.33
2024-02-12T18:02:33.354Z,68.40
2024-02-12T18:07:56.420Z,68.75
2024-02-12T18:13:19.515Z,69.57
2024-02-12T18:18:41.430Z,69.91
2024-02-12T18:24:03.412Z,70.25
2024-02-12T18:29:25.823Z,71.67
2024-02-12T18:34:48.368Z,71.72
2024-02-12T18:40:18.401Z,71.60
2024-02-12T18:45:41.399Z,72.13
2024-02-12T18:51:04.795Z,72.22
2024-02-12T18:56:29.406Z,73.02
2024-02-12T19:01:53.129Z,73.77
2024-02-12T19:07:14.904Z,73.02
2024-02-12T19:12:38.650Z,74.43
2024-02-12T19:18:04.402Z,75.04
2024-02-12T19:23:26.502Z,76.44
2024-02-12T19:28:48.343Z,74.64
2024-02-12T19:34:10.346Z,75.61
2024-02-12T19:39:35.797Z,76.43
2024-02-12T19:44:57.654Z,76.09
2024-02-12T19:50:19.510Z,76.55
2024-02-12T19:55:41.934Z,76.04
2024-02-12T20:01:04.478Z,76.81
2024-02-12T20:06:26.467Z,76.06
2024-02-12T20:11:51.619Z,76.41
2024-02-12T20:17:13.554Z,76.81
2024-02-12T20:22:36.581Z,76.43
2024-02-12T20:27:58.402Z,76.84
2024-02-12T20:33:20.622Z,78.04
2024-02-12T20:38:42.574Z,77.57
2024-02-12T20:44:04.555Z,78.02
2024-02-12T20:49:26.478Z,77.66
2024-02-12T20:54:49.321Z,78.36
2024-02-12T21:00:12.938Z,78.82
2024-02-12T21:05:38.139Z,79.04
2024-02-12T21:11:00.406Z,80.45
2024-02-12T21:16:22.432Z,80.51
2024-02-12T21:21:45.360Z,80.17
2024-02-12T21:27:10.649Z,80.49
2024-02-12T21:32:33.026Z,79.89
2024-02-12T21:37:54.924Z,79.75
2024-02-12T21:43:19.363Z,78.48
2024-02-12T21:48:41.237Z,78.91
2024-02-12T21:54:03.887Z,78.65
2024-02-12T21:59:25.784Z,78.78
2024-02-12T22:04:51.054Z,78.39
2024-02-12T22:10:12.883Z,78.16
2024-02-12T22:15:34.729Z,78.45
2024-02-12T22:20:56.666Z,78.28
2024-02-12T22:26:18.714Z,77.79
2024-02-12T22:31:43.826Z,78.35
2024-02-12T22:37:05.753Z,78.33
2024-02-12T22:42:27.751Z,78.38
2024-02-12T22:47:49.734Z,78.76
2024-02-12T22:53:11.885Z,79.33
2024-02-12T22:58:34.171Z,80.11
2024-02-12T23:03:56.109Z,81.04
2024-02-12T23:09:17.940Z,82.57
2024-02-12T23:14:39.876Z,82.45
2024-02-12T23:20:01.703Z,83.19
2024-02-12T23:25:27.384Z,83.44
2024-02-12T23:30:49.911Z,84.58
2024-02-12T23:36:11.779Z,85.44
2024-02-12T23:41:33.706Z,85.35
2024-02-12T23:46:56.122Z,85.39
2024-02-12T23:52:18.076Z,85.10
2024-02-12T23:57:39.973Z,84.61
